Time;durP1;ratioP1;P1;durP2;ratioP2;P2;SDS_P1;SDS_P2;PMS_P1;PMS_P2;Temp;Humidity;BMP_temperature;BMP_pressure;BME280_temperature;BME280_humidity;BME280_pressure;Samples;Min_cycle;Max_cycle;Signal;HPM_P1;HPM_P2
2021/09/28 00:01:56;;;;;;;1.40;0.77;;;;;;;28.26;36.27;97204.72;5005490;28;20034;-29
2021/09/28 00:04:21;;;;;;;1.83;1.17;;;;;;;28.25;36.25;97218.75;5011243;28;20033;-30
2021/09/28 00:06:46;;;;;;;1.35;0.88;;;;;;;28.26;36.26;97215.25;5003666;28;20101;-30
2021/09/28 00:09:12;;;;;;;3.70;0.90;;;;;;;28.26;36.12;97220.53;5011670;28;20037;-34
2021/09/28 00:11:37;;;;;;;1.70;1.00;;;;;;;28.25;36.01;97227.56;5006433;28;20030;-29
2021/09/28 00:14:03;;;;;;;2.20;1.10;;;;;;;28.25;36.12;97240.75;5004969;28;20032;-30
2021/09/28 00:16:28;;;;;;;3.58;0.75;;;;;;;28.25;36.08;97245.13;5005681;28;20081;-30
2021/09/28 00:18:54;;;;;;;1.65;1.02;;;;;;;28.25;36.09;97246.00;5007795;28;20033;-29
2021/09/28 00:21:19;;;;;;;1.75;0.80;;;;;;;28.25;36.09;97242.47;5005206;28;20022;-34
2021/09/28 00:23:45;;;;;;;1.65;0.85;;;;;;;28.26;36.09;97252.16;5002917;28;21046;-30
2021/09/28 00:26:10;;;;;;;2.15;0.77;;;;;;;28.25;35.86;97271.47;5002230;28;20029;-32
2021/09/28 00:28:35;;;;;;;1.40;0.90;;;;;;;28.24;36.07;97272.41;5003818;28;20029;-30
2021/09/28 00:31:01;;;;;;;1.40;0.77;;;;;;;28.25;35.97;97271.47;5005199;28;20077;-30
2021/09/28 00:33:28;;;;;;;1.33;0.80;;;;;;;28.24;35.95;97277.69;5003202;28;20037;-29
2021/09/28 00:35:53;;;;;;;1.10;0.70;;;;;;;28.23;35.92;97276.00;5008291;28;20064;-30
2021/09/28 00:38:18;;;;;;;2.78;1.00;;;;;;;28.24;35.85;97272.41;5005343;28;20029;-30
2021/09/28 00:40:44;;;;;;;2.17;1.00;;;;;;;28.23;35.82;97263.69;5003337;28;20442;-30
2021/09/28 00:43:09;;;;;;;2.92;0.90;;;;;;;28.23;35.85;97262.81;5001967;28;20029;-36
2021/09/28 00:45:35;;;;;;;2.30;0.75;;;;;;;28.23;35.71;97252.28;5005976;28;20030;-30
2021/09/28 00:48:00;;;;;;;0.95;0.60;;;;;;;28.23;35.85;97257.53;5006174;28;20029;-28
2021/09/28 00:50:26;;;;;;;1.17;0.88;;;;;;;28.22;35.67;97261.13;5008289;28;20360;-30
2021/09/28 00:52:51;;;;;;;1.83;0.70;;;;;;;28.23;35.90;97265.44;5000909;28;20488;-29
2021/09/28 00:55:17;;;;;;;1.35;0.70;;;;;;;28.21;35.77;97269.94;4994189;28;20041;-31
2021/09/28 00:57:42;;;;;;;0.73;0.73;;;;;;;28.22;35.69;97277.75;4989728;28;20083;-31
2021/09/28 01:00:09;;;;;;;0.73;0.73;;;;;;;28.21;35.64;97280.47;5001661;28;20068;-30
2021/09/28 01:02:36;;;;;;;0.57;0.47;;;;;;;28.22;35.63;97287.47;5001766;28;20029;-29
2021/09/28 01:05:03;;;;;;;1.10;0.68;;;;;;;28.22;35.83;97292.75;5005686;28;20021;-29
2021/09/28 01:07:29;;;;;;;1.65;0.77;;;;;;;28.20;35.77;97290.19;4998546;28;20597;-29
2021/09/28 01:09:55;;;;;;;0.98;0.70;;;;;;;28.20;35.76;97294.59;4998505;28;20080;-32
2021/09/28 01:12:20;;;;;;;1.33;0.60;;;;;;;28.18;35.84;97292.91;4998186;28;20068;-27
2021/09/28 01:14:46;;;;;;;0.70;0.60;;;;;;;28.18;35.81;97300.81;4995138;28;20614;-31
2021/09/28 01:17:12;;;;;;;1.95;0.75;;;;;;;28.19;35.74;97304.31;4992560;28;20033;-27
2021/09/28 01:19:38;;;;;;;1.60;0.80;;;;;;;28.18;35.60;97308.72;4998068;28;20673;-31
2021/09/28 01:22:05;;;;;;;0.57;0.50;;;;;;;28.18;35.71;97311.34;4993812;28;20041;-30
2021/09/28 01:24:30;;;;;;;1.00;0.50;;;;;;;28.17;35.66;97321.97;4995496;28;20439;-28
2021/09/28 01:26:56;;;;;;;0.60;0.60;;;;;;;28.17;35.66;97322.84;4994347;28;20099;-31
2021/09/28 01:29:21;;;;;;;0.50;0.50;;;;;;;28.18;35.83;97328.94;4995178;28;20033;-32
2021/09/28 01:31:47;;;;;;;0.65;0.40;;;;;;;28.17;35.74;97321.97;4992224;28;20038;-30
2021/09/28 01:34:12;;;;;;;0.95;0.80;;;;;;;28.17;35.62;97333.38;4992963;28;20040;-31
2021/09/28 01:36:38;;;;;;;1.52;0.70;;;;;;;28.17;35.60;97333.38;4993214;28;21078;-30
2021/09/28 01:39:03;;;;;;;0.35;0.35;;;;;;;28.16;35.65;97329.03;4994329;28;20404;-30
2021/09/28 01:41:29;;;;;;;1.10;0.50;;;;;;;28.17;35.68;97332.50;4994432;28;20034;-30
2021/09/28 01:44:08;;;;;;;1.00;0.50;;;;;;;28.15;35.58;97324.69;4995843;28;20033;-31
2021/09/28 01:46:35;;;;;;;0.75;0.50;;;;;;;28.16;35.62;97325.53;4998072;28;20060;-30
2021/09/28 01:49:02;;;;;;;1.38;0.80;;;;;;;28.15;35.59;97322.03;5000621;28;20044;-30
2021/09/28 01:51:27;;;;;;;0.60;0.45;;;;;;;28.15;35.65;97321.22;5002654;28;20036;-31
2021/09/28 01:53:53;;;;;;;0.75;0.70;;;;;;;28.15;35.63;97329.94;5008647;28;20033;-31
2021/09/28 01:56:22;;;;;;;1.13;0.40;;;;;;;28.14;35.64;97323.00;5006094;28;20649;-34
2021/09/28 01:58:48;;;;;;;0.45;0.45;;;;;;;28.14;35.62;97317.72;4991685;28;20079;-32
2021/09/28 02:01:14;;;;;;;1.05;0.50;;;;;;;28.13;35.71;97316.03;4999956;28;20107;-31
2021/09/28 02:03:39;;;;;;;1.00;0.50;;;;;;;28.14;35.57;97316.84;5000866;28;20514;-30
2021/09/28 02:06:05;;;;;;;2.45;0.60;;;;;;;28.13;35.58;97316.03;4999039;28;20025;-30
2021/09/28 02:08:30;;;;;;;1.15;0.60;;;;;;;28.13;35.55;97316.03;5000016;28;20064;-35
2021/09/28 02:10:55;;;;;;;1.50;0.75;;;;;;;28.13;35.55;97310.75;5000335;28;20053;-30
2021/09/28 02:13:21;;;;;;;1.05;0.68;;;;;;;28.13;35.49;97310.75;5000184;28;20040;-34
2021/09/28 02:15:46;;;;;;;1.50;0.57;;;;;;;28.13;35.43;97309.91;4998746;28;20083;-33
2021/09/28 02:18:12;;;;;;;0.57;0.55;;;;;;;28.13;35.50;97310.75;4996520;28;20086;-32
2021/09/28 02:20:37;;;;;;;0.95;0.50;;;;;;;28.12;35.60;97309.06;4999534;28;20025;-30
2021/09/28 02:23:02;;;;;;;0.47;0.45;;;;;;;28.12;35.58;97319.59;5000723;28;21140;-31
2021/09/28 02:25:28;;;;;;;1.00;0.60;;;;;;;28.12;35.49;97316.97;5000013;28;20143;-30
2021/09/28 02:27:53;;;;;;;0.52;0.50;;;;;;;28.12;35.39;97314.34;4998933;28;20836;-29
2021/09/28 02:30:19;;;;;;;1.83;0.60;;;;;;;28.12;35.53;97311.69;4997600;28;20052;-27
2021/09/28 02:32:44;;;;;;;0.80;0.50;;;;;;;28.11;35.36;97317.88;4997280;28;20042;-31
2021/09/28 02:35:10;;;;;;;1.40;0.60;;;;;;;28.11;35.57;97317.06;4992630;28;20042;-31
2021/09/28 02:37:35;;;;;;;1.25;0.60;;;;;;;28.12;35.33;97319.59;4995001;28;20095;-35
2021/09/28 02:40:02;;;;;;;0.98;0.50;;;;;;;28.11;35.36;97315.25;4998386;28;20316;-34
2021/09/28 02:42:27;;;;;;;0.93;0.60;;;;;;;28.11;35.40;97309.16;4999396;28;20029;-31
2021/09/28 02:44:55;;;;;;;0.40;0.40;;;;;;;28.10;35.21;97310.09;5004112;28;20036;-31
2021/09/28 02:47:21;;;;;;;1.02;0.60;;;;;;;28.10;35.29;97320.63;5002549;28;20068;-31
2021/09/28 02:49:47;;;;;;;0.80;0.40;;;;;;;28.10;35.45;97321.47;5000096;28;21068;-34
2021/09/28 02:52:12;;;;;;;1.00;0.52;;;;;;;28.10;35.36;97323.25;4999919;28;20041;-29
2021/09/28 02:54:38;;;;;;;1.40;0.70;;;;;;;28.11;35.26;97323.16;4998589;28;20026;-33
2021/09/28 02:57:03;;;;;;;1.05;0.50;;;;;;;28.10;35.32;97321.47;4996590;28;20400;-29
2021/09/28 02:59:28;;;;;;;2.38;0.82;;;;;;;28.10;35.33;97321.47;4998952;28;20069;-32
2021/09/28 03:01:54;;;;;;;2.03;0.75;;;;;;;28.09;35.36;97325.03;5006454;28;20873;-31
2021/09/28 03:04:19;;;;;;;1.60;0.52;;;;;;;28.09;35.35;97325.03;5001383;28;20041;-30
2021/09/28 03:06:45;;;;;;;1.17;0.60;;;;;;;28.08;35.12;97318.06;4992002;28;20099;-31
2021/09/28 03:09:10;;;;;;;2.08;0.70;;;;;;;28.08;35.21;97318.06;4999009;28;20060;-30
2021/09/28 03:11:35;;;;;;;0.85;0.50;;;;;;;28.09;35.23;97324.16;5000501;28;20029;-31
2021/09/28 03:14:01;;;;;;;1.42;0.63;;;;;;;28.08;35.37;97328.59;5016333;28;20134;-31
2021/09/28 03:16:26;;;;;;;0.70;0.43;;;;;;;28.08;35.30;97320.69;4998191;28;20752;-31
2021/09/28 03:18:52;;;;;;;1.77;0.60;;;;;;;28.08;35.20;97322.47;4995537;28;20091;-34
2021/09/28 03:21:17;;;;;;;1.63;0.77;;;;;;;28.08;35.17;97323.34;5004621;28;20044;-31
2021/09/28 03:23:43;;;;;;;2.10;0.60;;;;;;;28.06;35.22;97317.28;4997385;28;20688;-31
2021/09/28 03:26:08;;;;;;;1.40;0.70;;;;;;;28.07;35.20;97318.97;4995098;28;20025;-36
2021/09/28 03:28:33;;;;;;;1.20;0.57;;;;;;;28.07;35.20;97328.69;5005091;28;20215;-32
2021/09/28 03:30:59;;;;;;;1.95;0.65;;;;;;;28.07;35.09;97318.97;5005452;28;20029;-32
2021/09/28 03:33:25;;;;;;;0.90;0.50;;;;;;;28.06;35.15;97319.91;5003670;28;20096;-31
2021/09/28 03:35:51;;;;;;;1.63;0.70;;;;;;;28.06;35.10;97321.72;5003655;28;20112;-35
2021/09/28 03:38:16;;;;;;;4.90;0.70;;;;;;;28.06;34.98;97334.91;5002974;28;20033;-30
2021/09/28 03:40:41;;;;;;;0.90;0.50;;;;;;;28.05;34.96;97328.75;5002565;28;20030;-29
2021/09/28 03:43:07;;;;;;;2.28;0.70;;;;;;;28.06;35.04;97327.00;5006631;28;20057;-32
2021/09/28 03:45:33;;;;;;;1.80;0.70;;;;;;;28.04;35.06;97327.06;5006359;28;20071;-30
2021/09/28 03:47:59;;;;;;;0.88;0.50;;;;;;;28.05;35.12;97336.66;5002436;28;20044;-33
2021/09/28 03:50:25;;;;;;;0.70;0.50;;;;;;;28.04;34.84;97337.59;5002034;28;20026;-33
2021/09/28 03:52:51;;;;;;;1.40;0.50;;;;;;;28.03;34.97;97335.88;5017370;28;20053;-30
2021/09/28 03:55:19;;;;;;;2.80;0.80;;;;;;;28.03;34.95;97330.63;5002933;28;20025;-30
2021/09/28 03:57:46;;;;;;;1.42;0.68;;;;;;;28.03;35.01;97330.63;4998823;28;20227;-31
2021/09/28 04:00:12;;;;;;;1.85;0.60;;;;;;;28.03;34.90;97333.25;5004418;28;21937;-32
2021/09/28 04:02:38;;;;;;;2.00;0.80;;;;;;;28.02;34.90;97326.28;5002905;28;20295;-29
2021/09/28 04:05:03;;;;;;;1.30;0.40;;;;;;;28.01;34.82;97327.22;4993967;28;20029;-30
2021/09/28 04:07:29;;;;;;;0.73;0.43;;;;;;;28.01;34.77;97332.50;4993167;28;20061;-31
2021/09/28 04:09:54;;;;;;;1.00;0.52;;;;;;;28.00;34.90;97333.44;4999966;28;20029;-29
2021/09/28 04:12:20;;;;;;;2.00;0.60;;;;;;;28.00;34.63;97342.16;4995596;28;20670;-30
2021/09/28 04:14:46;;;;;;;2.42;0.90;;;;;;;28.00;34.72;97334.25;4996632;28;20040;-36
2021/09/28 04:17:11;;;;;;;1.73;0.70;;;;;;;28.01;34.78;97340.41;4996339;28;20072;-33
2021/09/28 04:19:37;;;;;;;2.13;0.60;;;;;;;27.99;34.81;97334.38;4995049;28;20538;-30
2021/09/28 04:22:02;;;;;;;1.27;0.60;;;;;;;27.99;34.83;97351.00;4997373;28;20517;-29
2021/09/28 04:24:28;;;;;;;1.50;0.50;;;;;;;27.98;34.70;97348.47;5000729;28;20053;-29
2021/09/28 04:26:54;;;;;;;1.63;0.68;;;;;;;27.99;34.70;97355.44;5005394;28;20103;-28
2021/09/28 04:29:19;;;;;;;0.90;0.40;;;;;;;27.96;34.70;97335.34;5007285;28;20037;-32
2021/09/28 04:31:45;;;;;;;2.10;0.80;;;;;;;27.97;34.63;97352.91;5002784;28;20029;-30
2021/09/28 04:34:10;;;;;;;1.10;0.70;;;;;;;27.96;34.75;97345.91;4998652;28;20837;-28
2021/09/28 04:36:36;;;;;;;1.40;0.57;;;;;;;27.96;34.71;97345.91;5001108;28;20036;-32
2021/09/28 04:39:01;;;;;;;1.00;0.52;;;;;;;27.95;34.77;97346.84;5004808;28;20026;-36
2021/09/28 04:41:26;;;;;;;1.20;0.63;;;;;;;27.95;34.66;97343.38;5000582;28;20556;-31
2021/09/28 04:43:52;;;;;;;2.00;0.60;;;;;;;27.95;34.79;97349.47;5003213;28;20037;-35
2021/09/28 04:46:17;;;;;;;1.05;0.73;;;;;;;27.95;34.70;97351.28;5004542;28;20041;-32
2021/09/28 04:48:44;;;;;;;0.88;0.60;;;;;;;27.94;34.64;97357.44;5008667;28;20033;-30
2021/09/28 04:51:09;;;;;;;1.85;0.77;;;;;;;27.94;34.56;97355.69;5008698;28;20091;-32
2021/09/28 04:53:35;;;;;;;4.68;0.70;;;;;;;27.93;34.49;97351.34;4993351;28;20938;-29
2021/09/28 04:56:00;;;;;;;1.33;0.60;;;;;;;27.92;34.72;97354.94;4999738;28;20394;-28
2021/09/28 04:58:26;;;;;;;0.90;0.50;;;;;;;27.92;34.66;97358.38;4991422;28;20823;-30
2021/09/28 05:00:51;;;;;;;1.63;0.70;;;;;;;27.91;34.45;97348.78;4994407;28;20091;-30
2021/09/28 05:03:17;;;;;;;1.15;0.50;;;;;;;27.90;34.66;97362.91;5006111;28;20033;-34
2021/09/28 05:05:43;;;;;;;1.10;0.65;;;;;;;27.90;34.43;97355.00;5007671;28;20025;-31
2021/09/28 05:08:08;;;;;;;3.13;0.65;;;;;;;27.90;34.48;97357.63;5002291;28;20833;-30
2021/09/28 05:10:34;;;;;;;3.00;0.88;;;;;;;27.89;34.57;97361.19;5006949;28;20041;-29
2021/09/28 05:12:59;;;;;;;2.75;0.70;;;;;;;27.89;34.63;97361.19;4997325;28;20036;-31
2021/09/28 05:15:24;;;;;;;1.13;0.60;;;;;;;27.89;34.46;97363.81;4994493;28;22575;-30
2021/09/28 05:17:50;;;;;;;1.63;0.63;;;;;;;27.89;34.57;97360.34;4999805;28;20033;-32
2021/09/28 05:20:15;;;;;;;1.15;0.68;;;;;;;27.88;34.42;97362.13;5002368;28;20030;-31
2021/09/28 05:22:41;;;;;;;1.05;0.63;;;;;;;27.88;34.50;97359.47;5015425;28;20026;-27
2021/09/28 05:25:06;;;;;;;2.17;0.82;;;;;;;27.88;34.54;97358.66;4999509;28;20526;-31
2021/09/28 05:27:32;;;;;;;2.53;0.80;;;;;;;27.88;34.45;97356.84;5006362;28;20034;-29
2021/09/28 05:29:57;;;;;;;1.80;0.90;;;;;;;27.88;34.43;97361.28;4998766;28;20130;-36
2021/09/28 05:32:23;;;;;;;0.85;0.65;;;;;;;27.88;34.33;97363.91;4998152;28;20026;-30
2021/09/28 05:34:48;;;;;;;2.00;0.80;;;;;;;27.87;34.39;97360.41;4999229;28;20047;-33
2021/09/28 05:37:13;;;;;;;1.52;0.63;;;;;;;27.86;34.43;97361.38;4997297;28;20025;-29
2021/09/28 05:39:39;;;;;;;1.45;0.90;;;;;;;27.85;34.34;97367.56;5000381;28;21640;-31
2021/09/28 05:42:05;;;;;;;2.88;0.95;;;;;;;27.85;34.41;97359.66;4999525;28;20032;-30
2021/09/28 05:44:30;;;;;;;2.15;1.17;;;;;;;27.85;34.23;97375.47;4999731;28;20026;-33
2021/09/28 05:46:55;;;;;;;1.92;0.85;;;;;;;27.83;34.37;97366.78;4999928;28;20040;-32
2021/09/28 05:49:21;;;;;;;1.75;0.77;;;;;;;27.83;34.21;97366.78;4998210;28;20107;-34
2021/09/28 05:51:51;;;;;;;2.97;1.15;;;;;;;27.83;34.20;97372.03;5003871;28;20079;-34
2021/09/28 05:54:18;;;;;;;4.00;0.98;;;;;;;27.83;34.16;97371.19;5009110;28;20025;-33
2021/09/28 05:56:48;;;;;;;2.80;0.80;;;;;;;27.84;34.24;97372.91;5005348;28;20034;-35
2021/09/28 05:59:14;;;;;;;2.60;0.80;;;;;;;27.83;34.24;97366.78;4993406;28;20832;-29
2021/09/28 06:01:39;;;;;;;1.50;0.73;;;;;;;27.82;34.52;97380.88;5004691;28;20041;-35
2021/09/28 06:04:04;;;;;;;3.80;0.98;;;;;;;27.82;34.63;97380.03;5007114;28;20037;-26
2021/09/28 06:06:30;;;;;;;1.60;0.75;;;;;;;27.83;34.43;97377.31;4993682;28;20409;-32
2021/09/28 06:08:56;;;;;;;2.55;1.25;;;;;;;27.83;34.37;97379.94;4997493;28;20033;-30
2021/09/28 06:11:22;;;;;;;2.60;0.88;;;;;;;27.82;34.30;97377.38;5006223;28;20041;-33
2021/09/28 06:13:48;;;;;;;2.47;0.90;;;;;;;27.83;34.45;97372.03;5007141;28;20029;-35
2021/09/28 06:16:13;;;;;;;1.27;0.50;;;;;;;27.82;34.22;97369.50;4992376;28;20120;-32
2021/09/28 06:18:38;;;;;;;1.30;0.70;;;;;;;27.82;34.42;97367.72;4995214;28;20029;-32
2021/09/28 06:21:04;;;;;;;2.08;0.80;;;;;;;27.81;34.42;97368.66;4999637;28;20045;-34
2021/09/28 06:23:29;;;;;;;1.17;0.80;;;;;;;27.82;34.41;97370.34;4999335;28;20030;-28
2021/09/28 06:25:55;;;;;;;2.85;1.00;;;;;;;27.82;34.25;97364.22;5003856;28;20085;-29
2021/09/28 06:28:20;;;;;;;4.50;0.75;;;;;;;27.82;34.21;97375.63;5007598;28;20032;-32
2021/09/28 06:30:46;;;;;;;1.45;0.75;;;;;;;27.82;34.27;97370.34;5002513;28;20072;-31
2021/09/28 06:33:11;;;;;;;5.30;0.95;;;;;;;27.82;34.35;97369.50;4997730;28;20095;-31
2021/09/28 06:35:37;;;;;;;9.80;1.88;;;;;;;27.82;34.32;97375.63;4999118;28;20041;-31
2021/09/28 06:38:04;;;;;;;10.43;2.90;;;;;;;27.82;34.53;97370.34;5000942;28;20026;-30
2021/09/28 06:40:29;;;;;;;15.00;3.92;;;;;;;27.83;34.75;97368.56;4996723;28;20029;-29
2021/09/28 06:42:55;;;;;;;13.05;3.38;;;;;;;27.82;34.73;97370.34;4998997;28;20057;-33
2021/09/28 06:45:22;;;;;;;7.00;2.53;;;;;;;27.82;34.78;97365.09;4997049;28;20594;-31
2021/09/28 06:47:47;;;;;;;13.65;3.72;;;;;;;27.84;34.66;97365.84;4998594;28;20025;-30
2021/09/28 06:50:13;;;;;;;15.43;3.70;;;;;;;27.83;34.58;97366.78;4998998;28;20496;-32
2021/09/28 06:52:38;;;;;;;7.97;3.17;;;;;;;27.84;34.33;97357.13;4991422;28;20372;-30
2021/09/28 06:55:04;;;;;;;15.07;3.40;;;;;;;27.85;34.42;97370.19;4998732;28;20033;-35
2021/09/28 06:57:29;;;;;;;8.98;3.15;;;;;;;27.85;34.19;97354.41;4995698;28;20261;-29
2021/09/28 06:59:55;;;;;;;11.60;3.28;;;;;;;27.87;34.35;97359.56;4994128;28;20030;-30
2021/09/28 07:02:20;;;;;;;10.48;3.17;;;;;;;27.88;34.14;97358.66;5002477;28;20025;-29
2021/09/28 07:04:45;;;;;;;10.63;3.38;;;;;;;27.88;34.19;97356.84;4998671;28;20040;-30
2021/09/28 07:07:11;;;;;;;9.73;3.35;;;;;;;27.90;34.39;97355.00;4998766;28;20044;-30
2021/09/28 07:09:36;;;;;;;11.38;3.10;;;;;;;27.92;34.57;97354.94;5001365;28;20503;-31
2021/09/28 07:12:02;;;;;;;7.78;3.30;;;;;;;27.92;34.66;97350.50;4999481;28;20025;-31
2021/09/28 07:14:27;;;;;;;11.75;3.50;;;;;;;27.94;34.70;97352.19;5007284;28;20025;-34
2021/09/28 07:16:53;;;;;;;12.43;3.35;;;;;;;27.95;34.69;97349.47;4999162;28;20021;-30
2021/09/28 07:19:18;;;;;;;8.35;2.72;;;;;;;27.96;34.71;97355.59;5001880;28;20033;-29
2021/09/28 07:21:43;;;;;;;11.38;3.28;;;;;;;27.96;34.73;97351.16;4998311;28;20063;-31
2021/09/28 07:24:09;;;;;;;13.38;3.60;;;;;;;27.98;34.66;97343.19;4996833;28;20029;-31
2021/09/28 07:26:35;;;;;;;11.05;2.92;;;;;;;28.00;34.63;97351.88;4995029;28;20310;-29
2021/09/28 07:29:00;;;;;;;15.23;3.50;;;;;;;28.00;34.63;97360.59;4999490;28;20546;-30
2021/09/28 07:31:26;;;;;;;12.55;3.50;;;;;;;28.03;34.63;97364.84;4998956;28;20225;-35
2021/09/28 07:33:51;;;;;;;7.20;3.10;;;;;;;28.03;34.86;97354.31;5000341;28;20029;-33
2021/09/28 07:36:17;;;;;;;9.70;2.95;;;;;;;28.04;34.67;97359.50;5000443;28;20475;-29
2021/09/28 07:38:43;;;;;;;8.70;2.88;;;;;;;28.06;34.57;97355.97;4998704;28;20041;-30
2021/09/28 07:41:08;;;;;;;12.60;3.15;;;;;;;28.06;34.64;97356.81;5000194;28;20088;-31
2021/09/28 07:43:34;;;;;;;8.57;2.92;;;;;;;28.07;34.53;97358.50;5000729;28;20503;-30
2021/09/28 07:46:00;;;;;;;10.57;3.10;;;;;;;28.08;34.55;97360.22;5000267;28;20428;-33
2021/09/28 07:48:26;;;;;;;9.23;2.70;;;;;;;28.10;34.52;97366.25;5000086;28;20033;-31
2021/09/28 07:50:52;;;;;;;12.07;3.03;;;;;;;28.10;34.49;97365.41;5001303;28;21945;-34
2021/09/28 07:53:17;;;;;;;13.05;3.25;;;;;;;28.11;34.48;97360.03;5004839;28;20025;-31
2021/09/28 07:55:43;;;;;;;7.35;2.20;;;;;;;28.12;34.56;97361.75;5010974;28;20037;-33
2021/09/28 07:58:08;;;;;;;7.53;2.38;;;;;;;28.13;34.56;97368.72;5003674;28;20116;-32
2021/09/28 08:00:34;;;;;;;7.70;2.70;;;;;;;28.14;34.46;97365.16;5011613;28;20496;-30
2021/09/28 08:02:59;;;;;;;9.27;2.83;;;;;;;28.15;34.54;97361.56;5008631;28;20207;-33
2021/09/28 08:05:24;;;;;;;8.15;2.80;;;;;;;28.17;34.39;97365.00;5008180;28;20034;-29
2021/09/28 08:07:50;;;;;;;12.18;2.20;;;;;;;28.16;33.56;97352.75;5008526;28;20026;-34
2021/09/28 08:10:15;;;;;;;11.07;2.85;;;;;;;28.10;31.62;97353.06;5009202;28;20033;-28
2021/09/28 08:12:41;;;;;;;14.35;2.42;;;;;;;27.99;30.93;97361.56;5010095;28;20041;-35
2021/09/28 08:15:07;;;;;;;11.02;2.30;;;;;;;27.85;29.96;97364.94;5011404;28;20057;-30
2021/09/28 08:17:32;;;;;;;8.65;2.20;;;;;;;27.68;29.96;97352.63;5002465;28;20109;-33
2021/09/28 08:19:58;;;;;;;7.68;2.13;;;;;;;27.50;29.95;97368.41;5001281;28;20285;-30
2021/09/28 08:22:23;;;;;;;7.20;2.08;;;;;;;27.32;29.81;97364.97;5001772;28;20034;-29
2021/09/28 08:24:52;;;;;;;12.15;2.33;;;;;;;27.13;29.67;97367.66;4998400;28;20037;-32
2021/09/28 08:30:05;;;;;;;9.18;2.30;;;;;;;26.71;30.13;97362.59;5000627;28;20134;-35
2021/09/28 08:32:30;;;;;;;17.80;2.50;;;;;;;26.57;30.68;97359.75;5017301;28;20033;-32
2021/09/28 08:34:57;;;;;;;9.02;1.92;;;;;;;26.49;31.37;97368.03;5007133;28;20041;-31
2021/09/28 08:37:24;;;;;;;9.02;1.70;;;;;;;26.46;31.75;97376.03;5004831;28;20080;-32
2021/09/28 08:39:50;;;;;;;6.97;2.00;;;;;;;26.46;31.99;97369.00;4998459;28;20547;-32
2021/09/28 08:42:15;;;;;;;8.93;1.77;;;;;;;26.50;32.16;97367.09;4998619;28;20040;-36
2021/09/28 08:44:41;;;;;;;13.88;2.20;;;;;;;26.53;32.06;97363.47;4994904;28;20032;-31
2021/09/28 08:47:06;;;;;;;10.20;1.55;;;;;;;26.56;32.56;97361.56;4997769;28;20595;-33
2021/09/28 08:49:32;;;;;;;12.57;1.88;;;;;;;26.63;32.43;97374.41;5001333;28;20950;-29
2021/09/28 08:51:57;;;;;;;9.88;1.60;;;;;;;26.67;32.62;97363.69;5007993;28;20403;-29
2021/09/28 08:54:22;;;;;;;8.02;1.40;;;;;;;26.73;32.80;97375.66;5001415;28;20057;-34
2021/09/28 08:56:48;;;;;;;11.00;1.67;;;;;;;26.85;32.78;97368.97;5004666;28;20037;-30
2021/09/28 08:59:14;;;;;;;13.02;1.65;;;;;;;26.94;32.50;97362.41;5006169;28;20060;-28
2021/09/28 09:02:12;;;;;;;5.50;1.67;;;;;;;27.03;31.79;97361.97;5004990;28;20773;-30
2021/09/28 09:04:37;;;;;;;5.72;1.70;;;;;;;27.08;31.49;97365.22;4971907;28;20053;-28
2021/09/28 09:07:22;;;;;;;10.32;2.03;;;;;;;27.12;31.26;97356.25;5005177;28;20025;-32
2021/09/28 09:09:48;;;;;;;10.20;1.95;;;;;;;27.18;31.05;97367.41;4997674;28;20204;-33
2021/09/28 09:12:13;;;;;;;5.38;1.70;;;;;;;27.19;31.03;97361.25;4995883;28;20033;-30
2021/09/28 09:14:40;;;;;;;8.57;1.65;;;;;;;27.21;31.13;97365.50;5002571;28;20559;-32
2021/09/28 09:17:06;;;;;;;10.32;1.90;;;;;;;27.24;31.11;97359.22;4994262;28;20048;-30
2021/09/28 09:19:32;;;;;;;15.88;2.00;;;;;;;27.24;31.28;97364.47;4995455;28;20026;-29
2021/09/28 09:21:59;;;;;;;6.55;1.33;;;;;;;27.26;31.15;97352.09;4993863;28;20881;-30
2021/09/28 09:24:48;;;;;;;7.35;1.67;;;;;;;27.26;30.96;97346.81;4996279;28;20061;-33
2021/09/28 09:27:27;;;;;;;13.18;1.75;;;;;;;27.27;31.15;97345.91;4991776;28;20041;-30
2021/09/28 09:30:14;;;;;;;7.93;1.55;;;;;;;27.26;31.04;97342.44;4991285;28;20134;-30
2021/09/28 09:32:56;;;;;;;6.65;1.60;;;;;;;27.28;31.07;97339.72;5000209;28;20381;-34
2021/09/28 09:35:31;;;;;;;9.10;1.70;;;;;;;27.28;31.25;97339.72;5003955;28;20033;-29
2021/09/28 09:38:13;;;;;;;6.22;1.30;;;;;;;27.29;31.51;97336.16;4999108;28;20140;-29
2021/09/28 09:40:43;;;;;;;6.07;1.70;;;;;;;27.30;32.24;97331.75;5004784;28;20079;-32
2021/09/28 09:43:09;;;;;;;15.68;1.88;;;;;;;27.31;32.50;97339.53;4982594;28;20033;-32
2021/09/28 09:45:35;;;;;;;16.38;1.50;;;;;;;27.33;32.50;97327.19;4998277;28;20060;-31
2021/09/28 09:48:00;;;;;;;7.80;1.17;;;;;;;27.36;32.85;97321.75;5000674;28;20025;-29
2021/09/28 09:50:30;;;;;;;13.35;2.03;;;;;;;27.38;32.73;97312.00;4999684;28;20119;-28
2021/09/28 09:52:59;;;;;;;7.30;1.70;;;;;;;27.41;32.22;97318.06;5001204;28;20578;-37
2021/09/28 09:55:25;;;;;;;4.75;1.55;;;;;;;27.41;31.82;97312.78;5009943;28;20033;-31
2021/09/28 09:57:51;;;;;;;5.22;1.45;;;;;;;27.43;31.49;97310.91;5004609;28;20026;-28
2021/09/28 10:00:16;;;;;;;5.97;1.88;;;;;;;27.42;31.18;97309.22;5008135;28;20052;-31
2021/09/28 10:02:42;;;;;;;6.60;1.52;;;;;;;27.42;30.94;97303.94;5010877;28;20032;-28
2021/09/28 10:05:07;;;;;;;8.80;1.77;;;;;;;27.42;30.84;97314.47;5008754;28;20026;-34
2021/09/28 10:07:33;;;;;;;7.35;1.75;;;;;;;27.42;30.88;97314.47;5007415;28;20061;-33
2021/09/28 10:09:58;;;;;;;4.93;1.70;;;;;;;27.40;30.63;97306.66;5007192;28;20033;-28
2021/09/28 10:12:23;;;;;;;6.45;2.10;;;;;;;27.39;30.41;97305.78;5007785;28;20040;-31
2021/09/28 10:14:51;;;;;;;7.47;2.00;;;;;;;27.38;30.47;97298.84;4991830;28;20816;-32
2021/09/28 10:17:22;;;;;;;5.43;1.85;;;;;;;27.36;30.53;97305.97;4996870;28;20025;-31
2021/09/28 10:19:51;;;;;;;5.72;2.08;;;;;;;27.34;30.19;97307.81;4999997;28;20108;-29
2021/09/28 10:22:36;;;;;;;7.10;1.90;;;;;;;27.32;29.92;97304.44;4997621;28;20121;-32
2021/09/28 10:25:19;;;;;;;8.98;2.35;;;;;;;27.27;29.86;97307.28;4999008;28;20021;-31
2021/09/28 10:27:52;;;;;;;7.15;1.80;;;;;;;27.27;29.96;97299.38;4998220;28;20602;-32
2021/09/28 10:30:35;;;;;;;7.07;1.85;;;;;;;27.24;29.82;97286.38;4995819;28;20049;-30
2021/09/28 10:33:22;;;;;;;5.15;2.00;;;;;;;27.22;29.94;97290.03;5003846;28;20029;-32
2021/09/28 10:36:13;;;;;;;7.15;1.88;;;;;;;27.20;29.72;97289.25;5004839;28;20033;-35
2021/09/28 10:38:45;;;;;;;29.58;4.20;;;;;;;27.17;31.18;97282.38;5000558;28;20035;-36
2021/09/28 10:41:29;;;;;;;10.35;2.33;;;;;;;27.15;30.57;97272.88;4995606;28;20107;-35
2021/09/28 10:43:55;;;;;;;4.90;1.92;;;;;;;27.12;30.26;97272.09;4998406;28;20022;-35
2021/09/28 10:46:39;;;;;;;9.10;2.35;;;;;;;27.11;30.08;97265.13;4994611;28;20044;-32
2021/09/28 10:49:22;;;;;;;12.68;2.47;;;;;;;27.11;30.08;97266.91;5001186;28;20127;-30
2021/09/28 10:51:48;;;;;;;8.68;2.00;;;;;;;27.09;30.00;97266.13;4992255;28;20042;-36
2021/09/28 10:54:13;;;;;;;11.57;2.33;;;;;;;27.08;30.04;97270.53;4981805;28;20072;-37
2021/09/28 10:56:52;;;;;;;12.88;1.77;;;;;;;27.07;29.78;97265.34;4997098;28;20651;-32
2021/09/28 10:59:17;;;;;;;7.63;1.50;;;;;;;27.05;29.71;97265.44;4998913;28;20049;-30
2021/09/28 11:02:03;;;;;;;8.45;1.85;;;;;;;27.04;29.61;97266.34;5003380;28;20033;-34
2021/09/28 11:04:28;;;;;;;6.72;1.73;;;;;;;27.01;29.42;97263.91;5003300;28;20035;-31
2021/09/28 11:06:55;;;;;;;5.75;1.70;;;;;;;26.98;29.48;97262.28;4997046;28;20576;-32
2021/09/28 11:09:23;;;;;;;7.90;1.75;;;;;;;26.98;29.41;97253.53;4999938;28;20487;-35
2021/09/28 11:11:53;;;;;;;6.35;1.77;;;;;;;26.97;29.31;97249.19;4999539;28;20032;-31
2021/09/28 11:14:19;;;;;;;9.20;2.03;;;;;;;26.95;29.20;97245.78;5001611;28;20026;-30
2021/09/28 11:16:56;;;;;;;6.85;1.58;;;;;;;26.94;29.17;97251.94;4999859;28;20025;-31
2021/09/28 11:19:23;;;;;;;5.90;1.90;;;;;;;26.90;29.26;97242.50;4998799;28;20037;-32
2021/09/28 11:21:49;;;;;;;4.07;1.75;;;;;;;26.92;29.13;97246.75;4997415;28;20037;-32
2021/09/28 11:24:18;;;;;;;5.03;1.92;;;;;;;26.91;28.94;97252.97;4998030;28;20353;-32
2021/09/28 11:26:44;;;;;;;4.40;1.90;;;;;;;26.88;28.78;97248.72;5001289;28;20049;-34
2021/09/28 11:29:11;;;;;;;7.10;1.92;;;;;;;26.86;28.51;97244.47;5000438;28;20282;-35
2021/09/28 11:31:41;;;;;;;4.97;1.75;;;;;;;26.84;28.67;97238.41;5000405;28;20064;-32
2021/09/28 11:34:07;;;;;;;9.68;1.77;;;;;;;26.81;28.64;97236.78;5000702;28;20034;-30